Terminal Aerodrome Forecast
Issued by NWS Binghamton, NY

Home | Current Version | Previous Version | Text Only | Print | Product List | Glossary On
Versions: 1 2 3 4 5 6 7 8 9 10 11 12 13 14 15 16
202
FTUS41 KBGM 301739
TAFSYR
TAF
KSYR 301739Z 3018/3118 07005KT P6SM SCT040 BKN100
     FM310300 09005KT P6SM OVC040
     FM310800 09005KT 3SM -SHRA BR OVC025
      TEMPO 3112/3116 2SM SHRA BR OVC015=

USA.gov is the U.S. government's official web portal to all federal, state and local government web resources and services.